Saint Bonnet de Bellac- Haute Vienne - France
Donnes mto: mardi, 03/01/2012
Date Horaire Temp. E. Hum. E. P.atmo. Pluie Vent Direction Direction Ensoleilleme Solaire P. de rose Temp au vent Rafales
03/01/2012 00:00 4,0 C 94 % 1025,5 hPa 0,0 mm 3,2 km/h (1 Bft) SO 225 0 min 0 W/m 3,1 C 4,0 C 3,6 km/h (1 Bft)
03/01/2012 00:10 3,9 C 94 % 1025,4 hPa 0,0 mm 2,9 km/h (1 Bft) S-SO 202 0 min 0 W/m 3,0 C 3,9 C 6,5 km/h (2 Bft)
03/01/2012 00:20 3,9 C 94 % 1025,6 hPa 0,0 mm 5,4 km/h (2 Bft) SO 225 0 min 0 W/m 3,0 C 2,7 C 7,9 km/h (2 Bft)
03/01/2012 00:30 3,9 C 94 % 1025,5 hPa 0,0 mm 6,5 km/h (2 Bft) SO 225 0 min 0 W/m 3,0 C 2,3 C 9,0 km/h (2 Bft)
03/01/2012 00:40 4,0 C 94 % 1025,3 hPa 0,0 mm 6,1 km/h (2 Bft) S-SO 202 0 min 0 W/m 3,1 C 2,5 C 11,2 km/h (2 Bft)
03/01/2012 00:50 4,0 C 94 % 1025,2 hPa 0,0 mm 5,8 km/h (2 Bft) S-SO 202 0 min 0 W/m 3,1 C 2,6 C 8,3 km/h (2 Bft)
03/01/2012 01:00 3,9 C 94 % 1025,1 hPa 0,0 mm 6,8 km/h (2 Bft) SO 225 0 min 0 W/m 3,0 C 2,2 C 8,3 km/h (2 Bft)
03/01/2012 01:10 3,9 C 94 % 1025,2 hPa 0,0 mm 8,3 km/h (2 Bft) S-SO 202 0 min 0 W/m 3,0 C 1,8 C 9,0 km/h (2 Bft)
03/01/2012 01:20 3,9 C 94 % 1025,2 hPa 0,0 mm 7,6 km/h (2 Bft) SO 225 0 min 0 W/m 3,0 C 2,0 C 11,5 km/h (2 Bft)
03/01/2012 01:30 4,0 C 94 % 1025,1 hPa 0,0 mm 6,5 km/h (2 Bft) SO 225 0 min 0 W/m 3,1 C 2,4 C 7,2 km/h (2 Bft)
03/01/2012 01:40 4,0 C 94 % 1025,0 hPa 0,0 mm 4,7 km/h (1 Bft) SO 225 0 min 0 W/m 3,1 C 3,1 C 7,6 km/h (2 Bft)
03/01/2012 01:50 4,0 C 94 % 1024,8 hPa 0,0 mm 5,8 km/h (2 Bft) S 180 0 min 0 W/m 3,1 C 2,6 C 6,1 km/h (2 Bft)
03/01/2012 02:02 4,1 C 94 % 1024,8 hPa 0,0 mm 5,8 km/h (2 Bft) S 180 0 min 0 W/m 3,2 C 2,8 C 8,6 km/h (2 Bft)
03/01/2012 02:10 4,2 C 94 % 1025,0 hPa 0,0 mm 7,6 km/h (2 Bft) SO 225 0 min 0 W/m 3,3 C 2,3 C 9,7 km/h (2 Bft)
03/01/2012 02:20 4,2 C 93 % 1024,7 hPa 0,0 mm 7,9 km/h (2 Bft) SO 225 0 min 0 W/m 3,2 C 2,2 C 10,8 km/h (2 Bft)
03/01/2012 02:30 4,2 C 93 % 1024,8 hPa 0,1 mm 9,4 km/h (2 Bft) SO 225 0 min 0 W/m 3,2 C 1,8 C 12,6 km/h (3 Bft)
03/01/2012 02:40 4,2 C 93 % 1024,8 hPa 0,0 mm 5,8 km/h (2 Bft) S-SO 202 0 min 0 W/m 3,2 C 2,9 C 8,6 km/h (2 Bft)
03/01/2012 02:50 4,2 C 93 % 1024,9 hPa 0,0 mm 9,4 km/h (2 Bft) S-SO 202 0 min 0 W/m 3,2 C 1,8 C 10,4 km/h (2 Bft)
03/01/2012 03:00 4,3 C 92 % 1025,0 hPa 0,0 mm 5,4 km/h (2 Bft) S-SO 202 0 min 0 W/m 3,1 C 3,1 C 8,6 km/h (2 Bft)
03/01/2012 03:10 4,3 C 92 % 1025,0 hPa 0,0 mm 5,8 km/h (2 Bft) SO 225 0 min 0 W/m 3,1 C 3,0 C 9,0 km/h (2 Bft)
03/01/2012 03:20 4,3 C 92 % 1024,8 hPa 0,0 mm 7,9 km/h (2 Bft) SO 225 0 min 0 W/m 3,1 C 2,3 C 9,4 km/h (2 Bft)
03/01/2012 03:30 4,5 C 92 % 1024,8 hPa 0,0 mm 5,8 km/h (2 Bft) S 180 0 min 0 W/m 3,3 C 3,2 C 6,1 km/h (2 Bft)
03/01/2012 03:40 4,6 C 93 % 1024,8 hPa 0,0 mm 10,1 km/h (2 Bft) SO 225 0 min 0 W/m 3,6 C 2,2 C 15,1 km/h (3 Bft)
03/01/2012 03:50 4,8 C 93 % 1025,0 hPa 0,0 mm 11,2 km/h (2 Bft) SO 225 0 min 0 W/m 3,8 C 2,2 C 11,2 km/h (2 Bft)
03/01/2012 04:00 4,9 C 92 % 1024,9 hPa 0,0 mm 6,8 km/h (2 Bft) SO 225 0 min 0 W/m 3,7 C 3,4 C 8,3 km/h (2 Bft)
03/01/2012 04:10 5,1 C 91 % 1025,0 hPa 0,0 mm 8,3 km/h (2 Bft) S 180 0 min 0 W/m 3,8 C 3,2 C 8,3 km/h (2 Bft)
03/01/2012 04:20 5,1 C 91 % 1024,9 hPa 0,0 mm 6,5 km/h (2 Bft) SO 225 0 min 0 W/m 3,8 C 3,7 C 9,4 km/h (2 Bft)
03/01/2012 04:30 5,1 C 91 % 1024,8 hPa 0,0 mm 9,7 km/h (2 Bft) SO 225 0 min 0 W/m 3,8 C 2,8 C 9,7 km/h (2 Bft)
03/01/2012 04:40 5,2 C 91 % 1024,7 hPa 0,0 mm 11,2 km/h (2 Bft) SO 225 0 min 0 W/m 3,9 C 2,7 C 11,2 km/h (2 Bft)
03/01/2012 04:50 5,3 C 91 % 1024,5 hPa 0,0 mm 8,6 km/h (2 Bft) S-SO 202 0 min 0 W/m 4,0 C 3,3 C 12,2 km/h (2 Bft)
03/01/2012 05:00 5,4 C 91 % 1024,4 hPa 0,0 mm 11,2 km/h (2 Bft) S-SO 202 0 min 0 W/m 4,1 C 2,9 C 13,0 km/h (3 Bft)
03/01/2012 05:10 5,6 C 91 % 1024,2 hPa 0,0 mm 15,1 km/h (3 Bft) O-SO 247 0 min 0 W/m 4,2 C 2,5 C 15,8 km/h (3 Bft)
03/01/2012 05:20 5,8 C 90 % 1024,4 hPa 0,0 mm 12,2 km/h (2 Bft) S-SO 202 0 min 0 W/m 4,3 C 3,2 C 19,8 km/h (3 Bft)
03/01/2012 05:30 5,9 C 91 % 1024,5 hPa 0,0 mm 10,1 km/h (2 Bft) S-SO 202 0 min 0 W/m 4,5 C 3,7 C 10,1 km/h (2 Bft)
03/01/2012 05:40 6,0 C 90 % 1024,5 hPa 0,0 mm 9,7 km/h (2 Bft) O-SO 247 0 min 0 W/m 4,5 C 3,9 C 12,6 km/h (3 Bft)
03/01/2012 05:50 6,1 C 90 % 1024,4 hPa 0,0 mm 12,2 km/h (2 Bft) SO 225 0 min 0 W/m 4,6 C 3,6 C 16,2 km/h (3 Bft)
03/01/2012 06:00 6,1 C 90 % 1024,2 hPa 0,0 mm 10,8 km/h (2 Bft) S-SO 202 0 min 0 W/m 4,6 C 3,8 C 17,6 km/h (3 Bft)
03/01/2012 06:10 6,1 C 90 % 1024,3 hPa 0,0 mm 9,0 km/h (2 Bft) S-SO 202 0 min 0 W/m 4,6 C 4,2 C 11,9 km/h (2 Bft)
03/01/2012 06:20 6,1 C 91 % 1024,5 hPa 0,0 mm 7,6 km/h (2 Bft) S-SO 202 0 min 0 W/m 4,7 C 4,5 C 11,5 km/h (2 Bft)
03/01/2012 06:30 6,2 C 91 % 1024,5 hPa 0,0 mm 14,4 km/h (3 Bft) S-SO 202 0 min 0 W/m 4,8 C 3,3 C 24,8 km/h (4 Bft)
03/01/2012 06:40 6,3 C 91 % 1024,5 hPa 0,0 mm 9,7 km/h (2 Bft) S 180 0 min 0 W/m 4,9 C 4,3 C 9,7 km/h (2 Bft)
03/01/2012 06:50 6,3 C 92 % 1024,4 hPa 0,0 mm 12,6 km/h (3 Bft) SO 225 0 min 0 W/m 5,1 C 3,7 C 16,6 km/h (3 Bft)
03/01/2012 07:00 6,1 C 92 % 1024,2 hPa 0,0 mm 10,8 km/h (2 Bft) SO 225 0 min 0 W/m 4,9 C 3,8 C 14,0 km/h (3 Bft)
03/01/2012 07:10 6,1 C 92 % 1024,1 hPa 0,0 mm 11,2 km/h (2 Bft) S-SO 202 0 min 0 W/m 4,9 C 3,7 C 13,3 km/h (3 Bft)
03/01/2012 07:20 6,0 C 92 % 1024,1 hPa 0,0 mm 7,6 km/h (2 Bft) SO 225 0 min 0 W/m 4,8 C 4,4 C 11,2 km/h (2 Bft)
03/01/2012 07:30 6,1 C 92 % 1024,2 hPa 0,0 mm 8,6 km/h (2 Bft) SO 225 0 min 0 W/m 4,9 C 4,3 C 12,2 km/h (2 Bft)
03/01/2012 07:40 6,2 C 92 % 1023,8 hPa 0,0 mm 13,0 km/h (3 Bft) SO 225 0 min 0 W/m 5,0 C 3,5 C 13,0 km/h (3 Bft)
03/01/2012 07:50 6,3 C 93 % 1024,0 hPa 0,0 mm 9,7 km/h (2 Bft) SO 225 0 min 0 W/m 5,3 C 4,3 C 12,6 km/h (3 Bft)
03/01/2012 08:00 6,5 C 93 % 1024,1 hPa 0,0 mm 9,7 km/h (2 Bft) S-SO 202 0 min 0 W/m 5,5 C 4,5 C 13,3 km/h (3 Bft)
03/01/2012 08:10 6,8 C 93 % 1024,1 hPa 0,0 mm 13,3 km/h (3 Bft) O-SO 247 0 min 0 W/m 5,7 C 4,2 C 18,7 km/h (3 Bft)
03/01/2012 08:20 7,1 C 93 % 1024,0 hPa 0,0 mm 12,2 km/h (2 Bft) S 180 0 min 0 W/m 6,0 C 4,8 C 18,7 km/h (3 Bft)
03/01/2012 08:30 7,2 C 92 % 1024,0 hPa 0,0 mm 8,3 km/h (2 Bft) SO 225 0 min 0 W/m 6,0 C 5,6 C 13,7 km/h (3 Bft)
03/01/2012 08:40 7,1 C 92 % 1023,8 hPa 0,0 mm 14,0 km/h (3 Bft) O-SO 247 0 min 0 W/m 5,9 C 4,5 C 20,5 km/h (4 Bft)
03/01/2012 08:50 7,1 C 92 % 1023,9 hPa 0,0 mm 12,2 km/h (2 Bft) S 180 0 min 0 W/m 5,9 C 4,8 C 15,5 km/h (3 Bft)
03/01/2012 09:00 7,3 C 92 % 1023,8 hPa 0,0 mm 14,4 km/h (3 Bft) SO 225 0 min 0 W/m 6,1 C 4,7 C 20,5 km/h (4 Bft)
03/01/2012 09:10 7,4 C 92 % 1023,9 hPa 0,0 mm 10,4 km/h (2 Bft) SO 225 0 min 0 W/m 6,2 C 5,4 C 14,4 km/h (3 Bft)
03/01/2012 09:20 7,6 C 92 % 1023,9 hPa 0,0 mm 12,6 km/h (3 Bft) S-SO 202 0 min 0 W/m 6,4 C 5,3 C 14,0 km/h (3 Bft)
03/01/2012 09:30 7,8 C 92 % 1023,9 hPa 0,0 mm 12,2 km/h (2 Bft) S-SO 202 0 min 0 W/m 6,6 C 5,6 C 22,0 km/h (4 Bft)
03/01/2012 09:40 7,8 C 91 % 1023,8 hPa 0,0 mm 11,9 km/h (2 Bft) SO 225 0 min 0 W/m 6,4 C 5,7 C 11,9 km/h (2 Bft)
03/01/2012 09:50 7,9 C 92 % 1023,6 hPa 0,0 mm 13,0 km/h (3 Bft) SO 225 0 min 0 W/m 6,7 C 5,6 C 13,0 km/h (3 Bft)
03/01/2012 10:00 8,1 C 92 % 1024,0 hPa 0,0 mm 10,1 km/h (2 Bft) SO 225 0 min 0 W/m 6,9 C 6,3 C 14,0 km/h (3 Bft)
03/01/2012 10:10 8,1 C 92 % 1024,1 hPa 0,0 mm 10,1 km/h (2 Bft) S-SO 202 0 min 0 W/m 6,9 C 6,3 C 14,4 km/h (3 Bft)
03/01/2012 10:20 8,2 C 92 % 1024,1 hPa 0,0 mm 11,2 km/h (2 Bft) SO 225 0 min 0 W/m 7,0 C 6,3 C 12,6 km/h (3 Bft)
03/01/2012 10:30 8,2 C 92 % 1024,2 hPa 0,0 mm 9,7 km/h (2 Bft) S-SO 202 0 min 0 W/m 7,0 C 6,5 C 14,8 km/h (3 Bft)
03/01/2012 10:40 8,1 C 92 % 1024,2 hPa 0,0 mm 9,7 km/h (2 Bft) S-SO 202 0 min 0 W/m 6,9 C 6,4 C 14,8 km/h (3 Bft)
03/01/2012 10:50 7,9 C 92 % 1024,2 hPa 0,0 mm 10,1 km/h (2 Bft) O-SO 247 0 min 0 W/m 6,7 C 6,1 C 10,8 km/h (2 Bft)
03/01/2012 11:00 7,9 C 93 % 1024,1 hPa 0,0 mm 9,4 km/h (2 Bft) SO 225 0 min 0 W/m 6,8 C 6,2 C 9,4 km/h (2 Bft)
03/01/2012 11:10 7,9 C 94 % 1024,0 hPa 0,0 mm 10,1 km/h (2 Bft) SO 225 0 min 0 W/m 7,0 C 6,1 C 14,0 km/h (3 Bft)
03/01/2012 11:20 7,9 C 94 % 1024,0 hPa 0,0 mm 9,4 km/h (2 Bft) S 180 0 min 0 W/m 7,0 C 6,2 C 16,6 km/h (3 Bft)
03/01/2012 11:30 8,1 C 95 % 1024,0 hPa 0,0 mm 15,5 km/h (3 Bft) S 180 0 min 0 W/m 7,3 C 5,5 C 23,8 km/h (4 Bft)
03/01/2012 11:40 8,3 C 95 % 1023,8 hPa 0,0 mm 11,9 km/h (2 Bft) SO 225 0 min 0 W/m 7,5 C 6,3 C 15,1 km/h (3 Bft)
03/01/2012 11:50 8,6 C 95 % 1023,7 hPa 0,0 mm 10,8 km/h (2 Bft) O-SO 247 0 min 0 W/m 7,8 C 6,8 C 13,3 km/h (3 Bft)
03/01/2012 12:00 8,9 C 95 % 1023,8 hPa 0,0 mm 10,1 km/h (2 Bft) O-SO 247 0 min 0 W/m 8,1 C 7,3 C 14,4 km/h (3 Bft)
03/01/2012 12:10 8,9 C 94 % 1023,6 hPa 0,0 mm 10,1 km/h (2 Bft) SO 225 0 min 0 W/m 8,0 C 7,3 C 10,1 km/h (2 Bft)
03/01/2012 12:20 9,1 C 94 % 1023,6 hPa 0,0 mm 12,6 km/h (3 Bft) S-SO 202 0 min 0 W/m 8,2 C 7,1 C 22,0 km/h (4 Bft)
03/01/2012 12:30 9,1 C 94 % 1023,4 hPa 0,0 mm 11,5 km/h (2 Bft) SO 225 0 min 0 W/m 8,2 C 7,3 C 15,5 km/h (3 Bft)
03/01/2012 12:40 9,2 C 94 % 1023,4 hPa 0,0 mm 9,7 km/h (2 Bft) S 180 0 min 0 W/m 8,3 C 7,7 C 16,6 km/h (3 Bft)
03/01/2012 12:50 9,2 C 94 % 1023,0 hPa 0,0 mm 15,8 km/h (3 Bft) S-SO 202 0 min 0 W/m 8,3 C 6,8 C 24,8 km/h (4 Bft)
03/01/2012 13:00 9,2 C 94 % 1023,0 hPa 0,0 mm 8,3 km/h (2 Bft) SO 225 0 min 0 W/m 8,3 C 8,0 C 14,4 km/h (3 Bft)
03/01/2012 13:10 9,2 C 94 % 1022,9 hPa 0,0 mm 14,0 km/h (3 Bft) SO 225 0 min 0 W/m 8,3 C 7,1 C 18,7 km/h (3 Bft)
03/01/2012 13:20 9,1 C 94 % 1022,6 hPa 0,1 mm 21,6 km/h (4 Bft) SO 225 0 min 0 W/m 8,2 C 6,1 C 21,6 km/h (4 Bft)
03/01/2012 13:30 9,2 C 94 % 1022,5 hPa 0,0 mm 11,5 km/h (2 Bft) S-SO 202 0 min 0 W/m 8,3 C 7,4 C 20,2 km/h (4 Bft)
03/01/2012 13:40 9,2 C 94 % 1022,5 hPa 0,0 mm 15,5 km/h (3 Bft) O-SO 247 0 min 0 W/m 8,3 C 6,9 C 19,4 km/h (3 Bft)
03/01/2012 13:50 9,2 C 94 % 1022,5 hPa 0,0 mm 15,1 km/h (3 Bft) SO 225 0 min 0 W/m 8,3 C 6,9 C 18,4 km/h (3 Bft)
03/01/2012 14:00 9,3 C 94 % 1022,5 hPa 0,1 mm 10,8 km/h (2 Bft) SO 225 0 min 0 W/m 8,4 C 7,7 C 16,9 km/h (3 Bft)
03/01/2012 14:10 9,3 C 94 % 1022,2 hPa 0,0 mm 16,9 km/h (3 Bft) S-SO 202 0 min 0 W/m 8,4 C 6,8 C 23,0 km/h (4 Bft)
03/01/2012 14:20 9,4 C 95 % 1022,1 hPa 0,0 mm 12,2 km/h (2 Bft) SO 225 0 min 0 W/m 8,6 C 7,6 C 14,0 km/h (3 Bft)
03/01/2012 14:30 9,4 C 95 % 1021,9 hPa 0,0 mm 19,4 km/h (3 Bft) S 180 0 min 0 W/m 8,6 C 6,7 C 25,6 km/h (4 Bft)
03/01/2012 14:40 9,6 C 94 % 1021,9 hPa 0,0 mm 15,8 km/h (3 Bft) S-SO 202 0 min 0 W/m 8,7 C 7,3 C 21,6 km/h (4 Bft)
03/01/2012 14:50 9,6 C 94 % 1022,0 hPa 0,0 mm 14,8 km/h (3 Bft) SO 225 0 min 0 W/m 8,7 C 7,4 C 21,6 km/h (4 Bft)
03/01/2012 15:00 9,8 C 94 % 1022,0 hPa 0,0 mm 13,0 km/h (3 Bft) SO 225 0 min 0 W/m 8,9 C 7,9 C 23,4 km/h (4 Bft)
03/01/2012 15:10 9,9 C 94 % 1021,9 hPa 0,0 mm 15,5 km/h (3 Bft) SO 225 0 min 0 W/m 9,0 C 7,7 C 18,7 km/h (3 Bft)
03/01/2012 15:20 10,1 C 93 % 1022,0 hPa 0,0 mm 20,5 km/h (4 Bft) O-SO 247 0 min 0 W/m 9,0 C 10,1 C 26,3 km/h (4 Bft)
03/01/2012 15:30 10,3 C 93 % 1021,8 hPa 0,0 mm 14,0 km/h (3 Bft) SO 225 0 min 0 W/m 9,2 C 10,3 C 18,0 km/h (3 Bft)
03/01/2012 15:40 10,2 C 93 % 1022,0 hPa 0,0 mm 11,9 km/h (2 Bft) S 180 0 min 0 W/m 9,1 C 10,2 C 11,9 km/h (2 Bft)
03/01/2012 15:50 10,2 C 93 % 1022,2 hPa 0,0 mm 14,8 km/h (3 Bft) SO 225 0 min 0 W/m 9,1 C 10,2 C 19,1 km/h (3 Bft)
03/01/2012 16:00 10,1 C 94 % 1022,1 hPa 0,1 mm 8,6 km/h (2 Bft) S-SE 157 0 min 0 W/m 9,2 C 10,1 C 13,0 km/h (3 Bft)
03/01/2012 16:10 10,2 C 94 % 1021,8 hPa 0,0 mm 11,5 km/h (2 Bft) S-SO 202 0 min 0 W/m 9,3 C 10,2 C 19,1 km/h (3 Bft)
03/01/2012 16:20 10,2 C 94 % 1021,9 hPa 0,0 mm 16,6 km/h (3 Bft) SO 225 0 min 0 W/m 9,3 C 10,2 C 24,8 km/h (4 Bft)
03/01/2012 16:30 10,2 C 94 % 1021,8 hPa 0,0 mm 14,0 km/h (3 Bft) SO 225 0 min 0 W/m 9,3 C 10,2 C 19,1 km/h (3 Bft)
03/01/2012 16:40 10,2 C 94 % 1021,8 hPa 0,0 mm 8,3 km/h (2 Bft) O-SO 247 0 min 0 W/m 9,3 C 10,2 C 11,9 km/h (2 Bft)
03/01/2012 16:50 10,2 C 94 % 1021,7 hPa 0,0 mm 9,7 km/h (2 Bft) SO 225 0 min 0 W/m 9,3 C 10,2 C 13,0 km/h (3 Bft)
03/01/2012 17:00 10,1 C 94 % 1021,8 hPa 0,0 mm 9,7 km/h (2 Bft) O-SO 247 0 min 0 W/m 9,2 C 10,1 C 14,8 km/h (3 Bft)
03/01/2012 17:10 10,1 C 94 % 1021,7 hPa 0,1 mm 10,4 km/h (2 Bft) SO 225 0 min 0 W/m 9,2 C 10,1 C 16,6 km/h (3 Bft)
03/01/2012 17:20 10,1 C 94 % 1021,7 hPa 0,0 mm 11,9 km/h (2 Bft) SO 225 0 min 0 W/m 9,2 C 10,1 C 20,2 km/h (4 Bft)
03/01/2012 17:30 10,1 C 94 % 1021,8 hPa 0,0 mm 13,3 km/h (3 Bft) SO 225 0 min 0 W/m 9,2 C 10,1 C 23,8 km/h (4 Bft)
03/01/2012 17:40 10,1 C 94 % 1021,9 hPa 0,1 mm 16,2 km/h (3 Bft) S-SO 202 0 min 0 W/m 9,2 C 10,1 C 26,3 km/h (4 Bft)
03/01/2012 17:50 10,0 C 94 % 1021,9 hPa 0,0 mm 11,2 km/h (2 Bft) SO 225 0 min 0 W/m 9,1 C 8,4 C 16,2 km/h (3 Bft)
03/01/2012 18:00 10,0 C 94 % 1021,9 hPa 0,0 mm 13,7 km/h (3 Bft) O-SO 247 0 min 0 W/m 9,1 C 8,1 C 18,7 km/h (3 Bft)
03/01/2012 18:10 10,0 C 94 % 1021,9 hPa 0,1 mm 10,8 km/h (2 Bft) SO 225 0 min 0 W/m 9,1 C 8,5 C 18,4 km/h (3 Bft)
03/01/2012 18:20 10,0 C 94 % 1022,0 hPa 0,0 mm 10,1 km/h (2 Bft) S-SO 202 0 min 0 W/m 9,1 C 8,6 C 11,9 km/h (2 Bft)
03/01/2012 18:30 10,0 C 94 % 1022,0 hPa 0,0 mm 15,8 km/h (3 Bft) SO 225 0 min 0 W/m 9,1 C 7,8 C 23,4 km/h (4 Bft)
03/01/2012 18:40 10,1 C 94 % 1021,9 hPa 0,0 mm 19,4 km/h (3 Bft) SO 225 0 min 0 W/m 9,2 C 10,1 C 19,4 km/h (3 Bft)
03/01/2012 18:50 10,1 C 94 % 1021,8 hPa 0,0 mm 16,2 km/h (3 Bft) SO 225 0 min 0 W/m 9,2 C 10,1 C 16,2 km/h (3 Bft)
03/01/2012 19:00 10,0 C 94 % 1021,8 hPa 0,0 mm 17,6 km/h (3 Bft) S-SO 202 0 min 0 W/m 9,1 C 7,6 C 23,0 km/h (4 Bft)
03/01/2012 19:10 10,0 C 95 % 1021,7 hPa 0,0 mm 10,8 km/h (2 Bft) SO 225 0 min 0 W/m 9,2 C 8,5 C 15,1 km/h (3 Bft)
03/01/2012 19:20 10,0 C 95 % 1021,8 hPa 0,0 mm 17,6 km/h (3 Bft) SO 225 0 min 0 W/m 9,2 C 7,6 C 22,3 km/h (4 Bft)
03/01/2012 19:30 10,0 C 95 % 1021,7 hPa 0,1 mm 13,7 km/h (3 Bft) SO 225 0 min 0 W/m 9,2 C 8,1 C 19,1 km/h (3 Bft)
03/01/2012 19:40 10,0 C 95 % 1021,7 hPa 0,0 mm 14,8 km/h (3 Bft) SO 225 0 min 0 W/m 9,2 C 7,9 C 25,2 km/h (4 Bft)
03/01/2012 19:50 9,9 C 95 % 1021,5 hPa 0,0 mm 15,1 km/h (3 Bft) S-SO 202 0 min 0 W/m 9,1 C 7,8 C 15,1 km/h (3 Bft)
03/01/2012 20:00 9,9 C 94 % 1021,5 hPa 0,0 mm 16,2 km/h (3 Bft) SO 225 0 min 0 W/m 9,0 C 7,6 C 23,8 km/h (4 Bft)
03/01/2012 20:10 9,9 C 94 % 1021,5 hPa 0,0 mm 14,4 km/h (3 Bft) SO 225 0 min 0 W/m 9,0 C 7,9 C 16,9 km/h (3 Bft)
03/01/2012 20:20 9,9 C 95 % 1021,3 hPa 0,0 mm 13,7 km/h (3 Bft) SO 225 0 min 0 W/m 9,1 C 8,0 C 13,7 km/h (3 Bft)
03/01/2012 20:30 9,9 C 95 % 1021,2 hPa 0,1 mm 16,6 km/h (3 Bft) O 270 0 min 0 W/m 9,1 C 7,6 C 16,6 km/h (3 Bft)
03/01/2012 20:40 9,9 C 95 % 1021,1 hPa 0,0 mm 13,7 km/h (3 Bft) O-SO 247 0 min 0 W/m 9,1 C 8,0 C 17,3 km/h (3 Bft)
03/01/2012 20:50 10,0 C 95 % 1021,0 hPa 0,1 mm 12,2 km/h (2 Bft) SO 225 0 min 0 W/m 9,2 C 8,3 C 17,3 km/h (3 Bft)
03/01/2012 21:00 9,9 C 95 % 1021,0 hPa 0,0 mm 18,4 km/h (3 Bft) SO 225 0 min 0 W/m 9,1 C 7,4 C 25,9 km/h (4 Bft)
03/01/2012 21:10 9,9 C 95 % 1021,0 hPa 0,0 mm 19,4 km/h (3 Bft) S-SO 202 0 min 0 W/m 9,1 C 7,3 C 22,0 km/h (4 Bft)
03/01/2012 21:20 9,9 C 95 % 1021,0 hPa 0,0 mm 23,8 km/h (4 Bft) SO 225 0 min 0 W/m 9,1 C 6,9 C 38,2 km/h (6 Bft)
03/01/2012 21:30 9,9 C 94 % 1021,0 hPa 0,1 mm 15,1 km/h (3 Bft) S-SO 202 0 min 0 W/m 9,0 C 7,8 C 16,9 km/h (3 Bft)
03/01/2012 21:40 9,8 C 94 % 1020,9 hPa 0,0 mm 16,9 km/h (3 Bft) S-SO 202 0 min 0 W/m 8,9 C 7,4 C 22,0 km/h (4 Bft)
03/01/2012 21:50 9,8 C 94 % 1020,7 hPa 0,0 mm 18,4 km/h (3 Bft) SO 225 0 min 0 W/m 8,9 C 7,3 C 22,3 km/h (4 Bft)
03/01/2012 22:00 9,8 C 94 % 1020,5 hPa 0,1 mm 15,1 km/h (3 Bft) O 270 0 min 0 W/m 8,9 C 7,7 C 17,6 km/h (3 Bft)
03/01/2012 22:10 9,8 C 94 % 1020,5 hPa 0,0 mm 15,8 km/h (3 Bft) SO 225 0 min 0 W/m 8,9 C 7,6 C 15,8 km/h (3 Bft)
03/01/2012 22:20 9,8 C 94 % 1020,4 hPa 0,0 mm 21,2 km/h (4 Bft) O-SO 247 0 min 0 W/m 8,9 C 7,0 C 28,8 km/h (5 Bft)
03/01/2012 22:30 9,9 C 93 % 1020,2 hPa 0,0 mm 18,4 km/h (3 Bft) SO 225 0 min 0 W/m 8,8 C 7,4 C 24,5 km/h (4 Bft)
03/01/2012 22:40 10,1 C 93 % 1020,1 hPa 0,0 mm 16,9 km/h (3 Bft) SO 225 0 min 0 W/m 9,0 C 10,1 C 22,0 km/h (4 Bft)
03/01/2012 22:50 10,1 C 92 % 1020,0 hPa 0,0 mm 18,4 km/h (3 Bft) SO 225 0 min 0 W/m 8,9 C 10,1 C 28,1 km/h (5 Bft)
03/01/2012 23:00 10,2 C 92 % 1020,0 hPa 0,0 mm 15,8 km/h (3 Bft) S 180 0 min 0 W/m 9,0 C 10,2 C 22,0 km/h (4 Bft)
03/01/2012 23:10 10,1 C 92 % 1020,0 hPa 0,1 mm 21,6 km/h (4 Bft) SO 225 0 min 0 W/m 8,9 C 10,1 C 30,2 km/h (5 Bft)
03/01/2012 23:20 9,9 C 93 % 1019,9 hPa 0,0 mm 15,1 km/h (3 Bft) S-SO 202 0 min 0 W/m 8,8 C 7,8 C 24,5 km/h (4 Bft)
03/01/2012 23:30 9,9 C 93 % 1019,8 hPa 0,1 mm 21,2 km/h (4 Bft) S-SO 202 0 min 0 W/m 8,8 C 7,1 C 26,6 km/h (4 Bft)
03/01/2012 23:40 9,9 C 93 % 1019,8 hPa 0,2 mm 16,2 km/h (3 Bft) SO 225 0 min 0 W/m 8,8 C 7,6 C 27,4 km/h (5 Bft)
03/01/2012 23:50 9,8 C 94 % 1019,6 hPa 0,2 mm 18,4 km/h (3 Bft) S 180 0 min 0 W/m 8,9 C 7,3 C 21,6 km/h (4 Bft)
_ Min-Heure 01:20 06:10 23:50 - 00:10 - - - - 01:20 01:10 00:00
Minimum _ 3,9 C 90 % 1019,6 hPa - 2,9 km/h (1 Bft) - - - - 3,0 C 1,8 C 3,6 km/h (1 Bft)
_ Max-Heure 15:30 21:20 00:20 23:40 21:20 - - 23:50 23:50 16:50 15:30 21:20
Maximum _ 10,3 C 95 % 1025,6 hPa 0,2 mm 23,8 km/h
SO (4 Bft)
- - 0 min 0 W/m 9,3 C 10,3 C 38,2 km/h
SO (6 Bft)
Moyenne _ 7,9 C 93 % 1023,1 hPa #1,9 mm 12,2 km/h (2 Bft) SO - #0 min. 0 W/m 6,8 C 6,1 C 16,4 km/h (3 Bft)
Saint Bonnet de Bellac- Haute Vienne - France